Time;durP1;ratioP1;P1;durP2;ratioP2;P2;SDS_P1;SDS_P2;PMS_P1;PMS_P2;Temp;Humidity;BMP_temperature;BMP_pressure;BME280_temperature;BME280_humidity;BME280_pressure;Samples;Min_cycle;Max_cycle;Signal;HPM_P1;HPM_P2
2023/02/16 00:00:50;;;;;;;27.10;15.88;;;9.80;99.90;;;;;;4976520;28;20054;-79
2023/02/16 00:03:16;;;;;;;28.25;16.35;;;9.80;99.90;;;;;;4972033;28;20131;-77
2023/02/16 00:05:43;;;;;;;23.83;14.95;;;9.70;99.90;;;;;;4972506;28;20473;-82
2023/02/16 00:08:10;;;;;;;24.75;14.40;;;9.60;99.90;;;;;;4957689;28;20050;-80
2023/02/16 00:10:36;;;;;;;22.48;15.38;;;9.60;99.90;;;;;;4975613;28;20046;-79
2023/02/16 00:15:48;;;;;;;24.55;14.98;;;9.60;99.90;;;;;;4977147;28;20468;-78
2023/02/16 00:18:15;;;;;;;23.42;15.43;;;9.60;99.90;;;;;;4975862;28;20051;-81
2023/02/16 00:20:41;;;;;;;22.10;15.45;;;9.60;99.90;;;;;;4976222;28;20549;-82
2023/02/16 00:23:08;;;;;;;27.42;16.40;;;9.60;99.90;;;;;;4960584;28;20097;-80
2023/02/16 00:25:35;;;;;;;24.63;15.00;;;9.60;99.90;;;;;;4971655;28;20047;-80
2023/02/16 00:28:01;;;;;;;27.35;16.70;;;9.60;99.90;;;;;;4973348;28;20058;-82
2023/02/16 00:30:28;;;;;;;22.52;14.73;;;9.60;99.90;;;;;;4970202;28;20137;-82
2023/02/16 00:32:55;;;;;;;20.65;14.23;;;9.60;99.90;;;;;;4974694;28;20130;-80
2023/02/16 00:35:22;;;;;;;22.40;14.35;;;9.60;99.90;;;;;;4960246;28;20385;-81
2023/02/16 00:37:50;;;;;;;24.15;15.75;;;9.60;99.90;;;;;;4975719;28;20047;-79
2023/02/16 00:40:17;;;;;;;22.92;15.23;;;9.70;99.90;;;;;;4974457;28;20453;-79
2023/02/16 00:42:45;;;;;;;24.20;14.50;;;9.70;99.90;;;;;;4959751;28;20047;-80
2023/02/16 00:45:12;;;;;;;26.88;15.45;;;9.70;99.90;;;;;;4974688;28;20158;-79
2023/02/16 00:47:39;;;;;;;26.25;15.13;;;9.70;99.90;;;;;;4976323;28;20038;-80
2023/02/16 00:50:05;;;;;;;24.52;15.25;;;9.80;99.90;;;;;;4976504;28;20131;-80
2023/02/16 00:52:33;;;;;;;26.17;14.25;;;9.80;99.90;;;;;;4975378;28;20051;-80
2023/02/16 00:55:00;;;;;;;25.70;14.73;;;9.80;99.90;;;;;;4976302;28;20085;-81
2023/02/16 00:57:27;;;;;;;21.48;14.15;;;9.80;99.90;;;;;;4973935;28;20085;-81
2023/02/16 00:59:53;;;;;;;26.75;14.50;;;9.80;99.90;;;;;;4971979;28;20074;-80
2023/02/16 01:02:21;;;;;;;23.42;14.27;;;9.80;99.90;;;;;;4966683;28;20470;-80
2023/02/16 01:04:48;;;;;;;25.75;14.20;;;9.80;99.90;;;;;;4967935;28;20050;-83
2023/02/16 01:12:46;;;;;;;23.23;13.45;;;9.70;99.90;;;;;;4976545;28;20085;-79
2023/02/16 01:15:13;;;;;;;22.70;12.77;;;9.70;99.90;;;;;;4975291;28;20053;-83
2023/02/16 01:17:39;;;;;;;18.45;12.05;;;9.60;99.90;;;;;;4974089;28;20035;-79
2023/02/16 01:20:06;;;;;;;19.48;12.85;;;9.60;99.90;;;;;;4975988;28;20374;-79
2023/02/16 01:22:33;;;;;;;24.48;12.73;;;9.50;99.90;;;;;;4975066;28;20138;-80
2023/02/16 01:24:59;;;;;;;23.33;14.10;;;9.50;99.90;;;;;;4973137;28;20053;-80
2023/02/16 01:27:26;;;;;;;22.73;13.00;;;9.40;99.90;;;;;;4955597;28;20046;-82
2023/02/16 01:29:53;;;;;;;26.67;12.77;;;9.30;99.90;;;;;;4984432;28;20376;-81
2023/02/16 01:32:20;;;;;;;22.42;13.52;;;9.30;99.90;;;;;;4958890;28;20464;-79
2023/02/16 01:34:46;;;;;;;22.08;13.82;;;9.20;99.90;;;;;;4973888;28;20540;-80
2023/02/16 01:37:13;;;;;;;19.50;11.40;;;9.20;99.90;;;;;;4973055;28;20051;-82
2023/02/16 01:39:42;;;;;;;18.65;12.77;;;9.10;99.90;;;;;;4974918;28;20074;-78
2023/02/16 01:42:09;;;;;;;20.75;12.15;;;9.00;99.90;;;;;;4974997;28;20042;-81
2023/02/16 01:44:36;;;;;;;18.45;11.95;;;9.00;99.90;;;;;;4974012;28;20061;-82
2023/02/16 01:47:04;;;;;;;18.33;11.80;;;8.90;99.90;;;;;;4958518;28;20081;-79
2023/02/16 01:49:30;;;;;;;20.42;12.52;;;8.90;99.90;;;;;;4975357;28;20510;-80
2023/02/16 01:51:58;;;;;;;18.77;14.00;;;8.90;99.90;;;;;;4976731;28;20043;-80
2023/02/16 01:54:26;;;;;;;15.57;10.15;;;8.90;99.90;;;;;;4976976;28;20046;-79
2023/02/16 01:56:52;;;;;;;18.73;11.20;;;8.90;99.90;;;;;;4975744;28;20042;-80
2023/02/16 01:59:19;;;;;;;19.35;10.38;;;8.90;99.90;;;;;;4976911;28;20373;-80
2023/02/16 02:01:46;;;;;;;18.70;10.77;;;8.90;99.90;;;;;;4976805;28;20043;-80
2023/02/16 02:06:58;;;;;;;15.07;9.30;;;8.80;99.90;;;;;;4977436;28;20043;-78
2023/02/16 02:09:25;;;;;;;11.80;7.82;;;8.80;99.90;;;;;;4977990;28;20053;-80
2023/02/16 02:11:54;;;;;;;13.98;8.25;;;8.90;99.90;;;;;;4978037;28;20126;-81
2023/02/16 02:14:21;;;;;;;12.68;8.43;;;8.90;99.90;;;;;;4978403;28;20039;-80
2023/02/16 02:16:48;;;;;;;15.38;7.93;;;8.90;99.90;;;;;;4976245;28;20050;-79
2023/02/16 02:19:15;;;;;;;16.70;7.60;;;9.00;99.90;;;;;;4974428;28;20070;-79
2023/02/16 02:24:29;;;;;;;9.07;7.05;;;9.00;99.90;;;;;;4975596;28;20038;-81
2023/02/16 02:26:55;;;;;;;12.40;6.63;;;9.00;99.90;;;;;;4959191;28;20101;-80
2023/02/16 02:29:26;;;;;;;12.10;5.78;;;9.00;99.90;;;;;;4975423;28;20062;-82
2023/02/16 02:31:53;;;;;;;;;;;9.00;99.90;;;;;;4974840;28;20054;-79
2023/02/16 02:34:20;;;;;;;7.00;4.05;;;9.00;99.90;;;;;;4962039;28;20330;-79
2023/02/16 02:36:46;;;;;;;6.55;4.53;;;9.00;99.90;;;;;;4975919;28;20101;-82
2023/02/16 02:39:13;;;;;;;10.15;3.72;;;9.10;99.90;;;;;;4960586;28;20141;-80
2023/02/16 02:42:15;;;;;;;6.63;3.33;;;9.10;99.90;;;;;;4962069;28;20046;-82
2023/02/16 02:44:41;;;;;;;5.40;3.28;;;9.10;99.90;;;;;;4974998;28;20058;-82
2023/02/16 02:47:08;;;;;;;7.95;3.38;;;9.00;99.90;;;;;;4961327;28;20050;-82
2023/02/16 02:49:35;;;;;;;6.60;3.30;;;9.00;99.90;;;;;;4977270;28;20465;-82
2023/02/16 02:52:04;;;;;;;5.82;2.83;;;8.90;99.90;;;;;;4976683;28;20053;-83
2023/02/16 03:02:48;;;;;;;6.38;2.28;;;8.60;99.90;;;;;;4975226;28;20137;-79
2023/02/16 03:05:15;;;;;;;4.50;2.20;;;8.60;99.90;;;;;;4976675;28;20050;-80
2023/02/16 03:07:48;;;;;;;6.53;2.70;;;8.50;99.90;;;;;;4976494;28;20146;-79
2023/02/16 03:15:45;;;;;;;5.10;2.28;;;8.40;99.90;;;;;;4977506;28;20047;-79
2023/02/16 03:29:14;;;;;;;6.00;3.13;;;8.30;99.90;;;;;;4966842;28;20122;-82
2023/02/16 03:31:41;;;;;;;6.40;2.67;;;8.20;99.90;;;;;;4973315;28;20113;-79
2023/02/16 03:34:08;;;;;;;3.75;2.22;;;8.20;99.90;;;;;;4975963;28;20085;-80
2023/02/16 03:36:34;;;;;;;7.90;3.10;;;8.20;99.90;;;;;;4977425;28;20115;-81
2023/02/16 03:39:01;;;;;;;5.32;2.72;;;8.20;99.90;;;;;;4975730;28;20043;-84
2023/02/16 03:41:28;;;;;;;6.45;2.58;;;8.10;99.90;;;;;;4960828;28;20363;-81
2023/02/16 03:43:54;;;;;;;4.00;2.15;;;8.20;99.90;;;;;;4976435;28;20143;-82
2023/02/16 03:46:21;;;;;;;6.20;2.65;;;8.10;99.90;;;;;;4976713;28;20134;-79
2023/02/16 03:48:47;;;;;;;4.25;2.90;;;8.10;99.90;;;;;;4976350;28;20118;-82
2023/02/16 03:51:14;;;;;;;6.35;2.80;;;8.10;99.90;;;;;;4976683;28;20449;-79
2023/02/16 03:53:41;;;;;;;8.73;3.10;;;8.10;99.90;;;;;;4976322;28;20062;-80
2023/02/16 03:56:08;;;;;;;6.75;3.38;;;8.00;99.90;;;;;;4955481;28;20047;-82
2023/02/16 03:58:34;;;;;;;5.28;2.88;;;8.00;99.90;;;;;;4973492;28;20051;-83
2023/02/16 04:01:02;;;;;;;5.63;2.85;;;8.00;99.90;;;;;;4973858;28;20508;-79
2023/02/16 04:03:29;;;;;;;8.63;3.70;;;7.90;99.90;;;;;;4976366;28;20053;-79
2023/02/16 04:05:56;;;;;;;6.68;3.63;;;7.90;99.90;;;;;;4976672;28;20466;-83
2023/02/16 04:08:22;;;;;;;9.70;3.95;;;7.80;99.90;;;;;;4977080;28;20050;-80
2023/02/16 04:10:49;;;;;;;5.22;4.13;;;7.90;99.90;;;;;;4975310;28;20047;-82
2023/02/16 04:13:15;;;;;;;6.50;3.65;;;7.90;99.90;;;;;;4975155;28;20047;-80
2023/02/16 04:15:42;;;;;;;6.10;3.33;;;7.90;99.90;;;;;;4975713;28;20413;-80
2023/02/16 04:18:09;;;;;;;6.72;3.70;;;7.90;99.90;;;;;;4974452;28;20503;-82
2023/02/16 04:20:35;;;;;;;6.53;2.67;;;7.90;99.90;;;;;;4977419;28;20150;-81
2023/02/16 04:23:02;;;;;;;6.30;2.80;;;7.90;99.90;;;;;;4976090;28;20046;-83
2023/02/16 04:25:29;;;;;;;8.38;3.45;;;7.90;99.90;;;;;;4975086;28;20377;-81
2023/02/16 04:27:55;;;;;;;6.28;3.50;;;7.90;99.90;;;;;;4976827;28;20089;-80
2023/02/16 04:30:22;;;;;;;7.00;3.30;;;7.90;99.90;;;;;;4972967;28;20461;-80
2023/02/16 04:32:49;;;;;;;5.03;2.95;;;7.90;99.90;;;;;;4973922;28;20121;-79
2023/02/16 04:35:15;;;;;;;7.53;2.72;;;8.00;99.90;;;;;;4973164;28;20047;-81
2023/02/16 04:37:42;;;;;;;5.88;4.07;;;8.00;99.90;;;;;;4972648;28;20047;-79
2023/02/16 04:40:12;;;;;;;6.18;3.67;;;8.00;99.90;;;;;;4973762;28;20469;-79
2023/02/16 04:42:40;;;;;;;6.10;3.25;;;8.00;99.90;;;;;;4975750;28;20058;-81
2023/02/16 04:45:06;;;;;;;6.93;4.07;;;8.00;99.90;;;;;;4975391;28;20038;-83
2023/02/16 04:47:33;;;;;;;6.43;4.13;;;8.00;99.90;;;;;;4976303;28;20047;-79
2023/02/16 04:49:59;;;;;;;5.40;4.05;;;8.00;99.90;;;;;;4976531;28;20065;-82
2023/02/16 04:52:26;;;;;;;5.38;3.50;;;8.00;99.90;;;;;;4975286;28;20077;-78
2023/02/16 04:54:53;;;;;;;6.25;3.42;;;8.00;99.90;;;;;;4973741;28;20347;-80
2023/02/16 04:57:21;;;;;;;7.72;3.72;;;7.90;99.90;;;;;;4971401;28;20046;-79
2023/02/16 04:59:48;;;;;;;6.38;3.35;;;8.00;99.90;;;;;;4973841;28;20038;-83
2023/02/16 05:02:14;;;;;;;5.95;3.28;;;7.90;99.90;;;;;;4973122;28;20145;-79
2023/02/16 05:04:41;;;;;;;6.28;2.90;;;7.90;99.90;;;;;;4974948;28;20117;-83
2023/02/16 05:07:08;;;;;;;4.38;2.80;;;7.90;99.90;;;;;;4975083;28;20466;-82
2023/02/16 05:09:34;;;;;;;4.15;2.72;;;7.90;99.90;;;;;;4959394;28;20050;-82
2023/02/16 05:14:47;;;;;;;8.68;3.25;;;8.00;99.90;;;;;;4973682;28;20047;-79
2023/02/16 05:17:13;;;;;;;8.70;3.17;;;8.00;99.90;;;;;;4971105;28;20039;-79
2023/02/16 05:19:40;;;;;;;6.22;2.85;;;8.00;99.90;;;;;;4973335;28;20106;-78
2023/02/16 05:22:07;;;;;;;7.93;3.03;;;8.00;99.90;;;;;;4959037;28;20043;-82
2023/02/16 05:24:33;;;;;;;5.00;3.17;;;8.10;99.90;;;;;;4974216;28;20485;-80
2023/02/16 05:27:00;;;;;;;6.57;3.30;;;8.10;99.90;;;;;;4974920;28;20066;-81
2023/02/16 05:29:26;;;;;;;6.43;2.85;;;8.10;99.90;;;;;;4975327;28;20131;-82
2023/02/16 05:31:54;;;;;;;5.20;2.83;;;8.10;99.90;;;;;;4974909;28;20062;-80
2023/02/16 05:34:21;;;;;;;4.95;3.45;;;8.20;99.90;;;;;;4975467;28;20109;-81
2023/02/16 05:36:48;;;;;;;5.22;2.90;;;8.20;99.90;;;;;;4975534;28;20047;-79
2023/02/16 05:39:14;;;;;;;6.07;2.55;;;8.20;99.90;;;;;;4958481;28;20091;-81
2023/02/16 05:44:26;;;;;;;4.55;2.78;;;8.30;99.90;;;;;;4974737;28;20129;-81
2023/02/16 05:46:53;;;;;;;5.00;3.15;;;8.30;99.90;;;;;;4970479;28;20050;-80
2023/02/16 05:49:20;;;;;;;6.95;3.33;;;8.30;99.90;;;;;;4972968;28;20464;-81
2023/02/16 05:51:47;;;;;;;4.47;2.55;;;8.30;99.90;;;;;;4971055;28;20043;-80
2023/02/16 05:54:16;;;;;;;5.05;2.50;;;8.30;99.90;;;;;;4975548;28;20069;-81
2023/02/16 05:56:43;;;;;;;;;;;8.30;99.90;;;;;;4969027;28;20051;-79
2023/02/16 05:59:10;;;;;;;4.05;2.45;;;8.30;99.90;;;;;;4973784;28;19922;-82
2023/02/16 06:01:39;;;;;;;6.85;2.33;;;8.30;99.90;;;;;;4975692;28;20053;-78
2023/02/16 06:04:06;;;;;;;;;;;8.40;99.90;;;;;;4975153;28;20462;-81
2023/02/16 06:06:33;;;;;;;6.32;3.03;;;8.40;99.90;;;;;;4975329;28;19988;-80
2023/02/16 06:09:00;;;;;;;6.20;3.03;;;8.40;99.90;;;;;;4975492;28;20050;-82
2023/02/16 06:11:37;;;;;;;7.22;2.92;;;8.40;99.90;;;;;;4969506;28;20054;-81
2023/02/16 06:14:04;;;;;;;5.57;3.35;;;8.40;99.90;;;;;;4972850;28;20061;-79
2023/02/16 06:16:31;;;;;;;6.22;3.83;;;8.50;99.90;;;;;;4972637;28;20365;-80
2023/02/16 06:18:57;;;;;;;7.55;3.63;;;8.50;99.90;;;;;;4972200;28;20042;-79
2023/02/16 06:21:26;;;;;;;7.50;4.05;;;8.50;99.90;;;;;;4975010;28;20043;-81
2023/02/16 06:23:53;;;;;;;6.83;4.10;;;8.60;99.90;;;;;;4957771;28;20051;-80
2023/02/16 06:26:19;;;;;;;12.00;6.35;;;8.60;99.90;;;;;;4975553;28;20325;-81
2023/02/16 06:28:46;;;;;;;8.32;4.85;;;8.60;99.90;;;;;;4974149;28;20046;-79
2023/02/16 06:31:14;;;;;;;8.93;4.95;;;8.60;99.90;;;;;;4973594;28;20039;-82
2023/02/16 06:33:42;;;;;;;10.40;6.07;;;8.60;99.90;;;;;;4975499;28;20432;-81
2023/02/16 06:36:08;;;;;;;10.15;6.32;;;8.60;99.90;;;;;;4975577;28;20039;-82
2023/02/16 06:38:35;;;;;;;14.60;7.80;;;8.60;99.90;;;;;;4977093;28;20046;-80
2023/02/16 06:41:03;;;;;;;15.88;8.20;;;8.60;99.90;;;;;;4962614;28;20069;-79
2023/02/16 06:43:30;;;;;;;11.23;8.23;;;8.60;99.90;;;;;;4978904;28;20054;-79
2023/02/16 06:45:56;;;;;;;12.95;8.15;;;8.60;99.90;;;;;;4973278;28;20457;-82
2023/02/16 06:48:23;;;;;;;12.75;9.23;;;8.60;99.90;;;;;;4975810;28;20081;-78
2023/02/16 06:50:50;;;;;;;10.13;7.82;;;8.60;99.90;;;;;;4974624;28;20050;-82
2023/02/16 06:53:16;;;;;;;10.63;8.18;;;8.70;99.90;;;;;;4958037;28;20055;-80
2023/02/16 06:55:43;;;;;;;11.88;8.48;;;8.70;99.90;;;;;;4969767;28;20050;-80
2023/02/16 06:58:10;;;;;;;10.68;8.18;;;8.70;99.90;;;;;;4960379;28;20055;-80
2023/02/16 07:00:37;;;;;;;13.68;9.75;;;8.70;99.90;;;;;;4977986;28;20043;-80
2023/02/16 07:03:03;;;;;;;13.63;8.63;;;8.70;99.90;;;;;;4977710;28;20401;-79
2023/02/16 07:05:30;;;;;;;12.40;8.02;;;8.80;99.90;;;;;;4975849;28;20070;-79
2023/02/16 07:07:57;;;;;;;13.25;8.23;;;8.80;99.90;;;;;;4977728;28;20062;-80
2023/02/16 07:10:23;;;;;;;10.73;8.98;;;8.80;99.90;;;;;;4956769;28;20450;-81
2023/02/16 07:12:51;;;;;;;12.10;7.55;;;8.80;99.90;;;;;;4975590;28;20126;-82
2023/02/16 07:15:18;;;;;;;9.30;7.10;;;8.80;99.90;;;;;;4991449;28;20047;-79
2023/02/16 07:17:44;;;;;;;11.13;7.60;;;8.90;99.90;;;;;;4973226;28;20047;-82
2023/02/16 07:20:11;;;;;;;11.23;7.30;;;8.90;99.90;;;;;;4976467;28;20365;-79
2023/02/16 07:22:38;;;;;;;10.40;6.85;;;8.90;99.90;;;;;;4976805;28;20444;-80
2023/02/16 07:25:05;;;;;;;10.10;6.80;;;8.90;99.90;;;;;;4977518;28;20051;-82
2023/02/16 07:27:32;;;;;;;8.38;6.32;;;8.90;99.90;;;;;;4976904;28;20058;-81
2023/02/16 07:29:58;;;;;;;9.60;6.68;;;9.00;99.90;;;;;;4975170;28;20043;-79
2023/02/16 07:32:25;;;;;;;7.53;6.03;;;9.00;99.90;;;;;;4977151;28;20051;-79
2023/02/16 07:34:52;;;;;;;8.85;6.40;;;9.00;99.90;;;;;;4983463;28;20104;-80
2023/02/16 07:37:19;;;;;;;11.75;6.07;;;9.00;99.90;;;;;;4964893;28;20051;-79
2023/02/16 07:39:45;;;;;;;7.38;5.63;;;9.00;99.90;;;;;;4967500;28;20047;-79
2023/02/16 07:42:12;;;;;;;7.47;5.65;;;9.10;99.90;;;;;;4966507;28;20039;-79
2023/02/16 07:44:44;;;;;;;9.15;5.70;;;9.10;99.90;;;;;;4962636;28;20050;-80
2023/02/16 07:47:13;;;;;;;8.07;4.70;;;9.10;99.90;;;;;;4966726;28;20126;-78
2023/02/16 07:49:39;;;;;;;6.47;4.75;;;9.10;99.90;;;;;;4968315;28;20047;-81
2023/02/16 07:52:06;;;;;;;7.10;4.70;;;9.10;99.90;;;;;;4963587;28;20047;-81
2023/02/16 07:54:33;;;;;;;8.18;3.83;;;9.10;99.90;;;;;;4962215;28;20122;-80
2023/02/16 07:56:59;;;;;;;7.10;3.80;;;9.20;99.90;;;;;;4975457;28;20047;-80
2023/02/16 07:59:26;;;;;;;7.25;3.65;;;9.20;99.90;;;;;;4962999;28;20465;-77
2023/02/16 08:01:53;;;;;;;6.55;4.07;;;9.20;99.90;;;;;;4967581;28;20043;-80
2023/02/16 08:04:19;;;;;;;6.65;3.97;;;9.30;99.90;;;;;;4967389;28;20118;-80
2023/02/16 08:06:47;;;;;;;7.13;3.10;;;9.30;99.90;;;;;;4950797;28;20142;-82
2023/02/16 08:09:14;;;;;;;7.00;3.70;;;9.30;99.90;;;;;;4967204;28;20039;-80
2023/02/16 08:11:43;;;;;;;7.70;3.72;;;9.30;99.90;;;;;;4971428;28;20043;-78
2023/02/16 08:14:09;;;;;;;5.63;2.50;;;9.30;99.90;;;;;;4962885;28;20081;-78
2023/02/16 08:16:36;;;;;;;3.95;1.98;;;9.40;99.90;;;;;;4966097;28;20051;-81
2023/02/16 08:19:03;;;;;;;4.03;1.90;;;9.40;99.90;;;;;;4963970;28;20397;-79
2023/02/16 08:21:30;;;;;;;5.25;2.22;;;9.50;99.90;;;;;;4966250;28;20043;-80
2023/02/16 08:23:57;;;;;;;7.28;2.30;;;9.50;99.90;;;;;;4965437;28;20465;-79
2023/02/16 08:26:24;;;;;;;2.55;1.67;;;9.60;99.90;;;;;;4965441;28;20102;-78
2023/02/16 08:28:51;;;;;;;4.85;1.73;;;9.60;99.90;;;;;;4966928;28;20047;-80
2023/02/16 08:31:18;;;;;;;3.47;1.38;;;9.60;99.90;;;;;;4963739;28;20377;-78
2023/02/16 08:33:45;;;;;;;3.88;2.15;;;9.70;99.90;;;;;;4964798;28;20051;-79
2023/02/16 08:36:11;;;;;;;7.43;1.70;;;9.70;99.90;;;;;;4968266;28;20058;-77
2023/02/16 08:38:42;;;;;;;3.42;1.67;;;9.80;99.90;;;;;;4970684;28;20342;-79
2023/02/16 08:41:08;;;;;;;1.70;0.90;;;9.80;99.90;;;;;;4968000;28;20035;-80
2023/02/16 08:43:35;;;;;;;2.15;1.30;;;9.90;99.90;;;;;;4960371;28;20441;-78
2023/02/16 08:46:02;;;;;;;2.25;1.20;;;9.90;99.90;;;;;;4973864;28;20043;-82
2023/02/16 08:48:34;;;;;;;3.55;1.30;;;9.90;99.90;;;;;;4969692;28;20046;-78
2023/02/16 08:51:01;;;;;;;1.85;1.05;;;9.90;99.90;;;;;;4958105;28;20357;-79
2023/02/16 08:53:31;;;;;;;3.08;1.50;;;9.90;99.90;;;;;;4964612;28;20039;-80
2023/02/16 08:55:59;;;;;;;2.38;1.10;;;9.90;99.90;;;;;;4967879;28;20047;-77
2023/02/16 08:58:28;;;;;;;3.25;1.33;;;9.90;99.90;;;;;;4960954;28;20038;-80
2023/02/16 09:00:56;;;;;;;;;;;9.90;99.90;;;;;;4967054;28;20043;-78
2023/02/16 09:03:23;;;;;;;1.90;1.02;;;9.90;99.90;;;;;;4959689;28;20033;-81
2023/02/16 09:05:50;;;;;;;2.97;1.17;;;9.90;99.90;;;;;;4962437;28;20043;-79
2023/02/16 09:08:16;;;;;;;3.13;1.60;;;9.80;99.90;;;;;;4972061;28;20145;-78
2023/02/16 09:10:43;;;;;;;2.90;1.38;;;9.80;99.90;;;;;;4966810;28;20062;-77
2023/02/16 09:13:13;;;;;;;2.28;1.30;;;9.80;99.90;;;;;;4969190;28;20047;-79
2023/02/16 09:15:40;;;;;;;2.50;1.23;;;9.90;99.90;;;;;;4969178;28;20042;-81
2023/02/16 09:18:08;;;;;;;2.47;1.45;;;9.90;99.90;;;;;;4968939;28;20501;-81
2023/02/16 09:20:35;;;;;;;4.25;1.60;;;10.00;99.90;;;;;;4963182;28;20093;-77
2023/02/16 09:23:02;;;;;;;3.55;1.55;;;10.00;99.90;;;;;;4980408;28;20039;-78
2023/02/16 09:25:29;;;;;;;8.38;1.25;;;10.10;99.90;;;;;;4979351;28;20043;-78
2023/02/16 09:27:56;;;;;;;3.92;1.90;;;10.10;99.90;;;;;;4968665;28;20051;-78
2023/02/16 09:30:23;;;;;;;1.60;1.17;;;10.20;99.90;;;;;;4983190;28;20096;-76
2023/02/16 09:32:50;;;;;;;3.47;1.38;;;10.30;99.90;;;;;;4971659;28;20042;-78
2023/02/16 09:35:17;;;;;;;1.67;1.20;;;10.30;99.90;;;;;;4975632;28;20050;-77
2023/02/16 09:37:44;;;;;;;2.63;1.10;;;10.30;99.90;;;;;;4973041;28;20061;-79
2023/02/16 09:40:10;;;;;;;3.83;1.35;;;10.40;99.90;;;;;;4973703;28;20042;-80
2023/02/16 09:42:38;;;;;;;2.08;1.25;;;10.40;99.90;;;;;;4991599;28;20202;-77
2023/02/16 09:45:06;;;;;;;9.38;2.28;;;10.40;99.90;;;;;;4993684;28;20046;-79
2023/02/16 09:47:33;;;;;;;3.05;1.52;;;10.50;99.90;;;;;;4978042;28;20519;-79
2023/02/16 09:49:59;;;;;;;4.07;1.20;;;10.50;99.90;;;;;;4962558;28;20043;-78
2023/02/16 09:52:27;;;;;;;2.60;1.40;;;10.60;99.90;;;;;;4991615;28;20052;-81
2023/02/16 09:54:54;;;;;;;3.53;1.30;;;10.60;99.90;;;;;;4994867;28;20062;-78
2023/02/16 09:57:21;;;;;;;4.15;1.35;;;10.60;99.90;;;;;;4993003;28;20081;-79
2023/02/16 09:59:48;;;;;;;1.95;1.08;;;10.70;99.90;;;;;;4994176;28;20057;-79
2023/02/16 10:02:14;;;;;;;1.70;1.33;;;10.60;99.90;;;;;;4994656;28;20035;-79
2023/02/16 10:04:41;;;;;;;3.70;1.95;;;10.60;99.90;;;;;;4993950;28;20042;-79
2023/02/16 10:07:10;;;;;;;3.70;1.50;;;10.70;99.90;;;;;;4961466;28;20416;-78
2023/02/16 10:09:36;;;;;;;2.25;1.58;;;10.70;99.90;;;;;;4974602;28;20061;-78
2023/02/16 10:12:03;;;;;;;7.13;2.10;;;10.80;99.90;;;;;;4974988;28;20039;-78
2023/02/16 10:14:30;;;;;;;4.43;2.28;;;10.80;99.90;;;;;;4978543;28;20057;-79
2023/02/16 10:16:57;;;;;;;2.13;1.27;;;10.80;99.90;;;;;;4977130;28;20085;-79
2023/02/16 10:19:23;;;;;;;2.75;1.20;;;10.70;99.90;;;;;;4978465;28;20043;-80
2023/02/16 10:21:51;;;;;;;3.15;1.25;;;10.80;99.90;;;;;;4977852;28;20053;-80
2023/02/16 10:24:18;;;;;;;3.67;1.40;;;10.90;99.90;;;;;;4978086;28;20098;-78
2023/02/16 10:26:45;;;;;;;4.07;1.50;;;10.90;99.90;;;;;;4979059;28;20043;-79
2023/02/16 10:29:11;;;;;;;4.53;2.00;;;10.90;99.90;;;;;;4979055;28;20053;-78
2023/02/16 10:31:39;;;;;;;4.43;2.20;;;10.90;99.90;;;;;;4977505;28;20051;-78
2023/02/16 10:34:06;;;;;;;2.90;1.60;;;11.10;99.90;;;;;;4979036;28;20476;-78
2023/02/16 10:36:33;;;;;;;2.53;1.50;;;11.10;99.90;;;;;;4977937;28;20425;-78
2023/02/16 10:38:59;;;;;;;3.22;1.85;;;11.20;99.90;;;;;;4977969;28;20054;-77
2023/02/16 10:41:27;;;;;;;4.70;1.67;;;11.20;99.90;;;;;;4977904;28;20053;-77
2023/02/16 10:43:53;;;;;;;4.68;1.65;;;11.30;99.90;;;;;;4976896;28;20480;-77
2023/02/16 10:46:20;;;;;;;3.67;1.73;;;11.30;99.90;;;;;;4978847;28;20051;-78
2023/02/16 10:48:47;;;;;;;3.17;1.70;;;11.40;99.90;;;;;;4977951;28;20050;-77
2023/02/16 10:51:13;;;;;;;3.47;1.60;;;11.40;99.90;;;;;;4974424;28;20043;-77
2023/02/16 10:53:40;;;;;;;3.72;1.63;;;11.40;99.90;;;;;;4961973;28;20095;-79
2023/02/16 10:56:06;;;;;;;2.53;1.80;;;11.50;99.90;;;;;;4945267;28;20373;-76
2023/02/16 10:58:33;;;;;;;4.07;1.83;;;11.50;99.90;;;;;;4977266;28;20042;-76
2023/02/16 11:01:00;;;;;;;3.50;2.05;;;11.50;99.90;;;;;;4977844;28;20046;-76
2023/02/16 11:03:26;;;;;;;4.40;3.30;;;11.50;99.90;;;;;;4977419;28;20474;-76
2023/02/16 11:05:53;;;;;;;4.60;3.05;;;11.50;99.90;;;;;;4977263;28;20058;-78
2023/02/16 11:08:20;;;;;;;4.72;2.58;;;11.40;99.90;;;;;;4973527;28;20039;-78
2023/02/16 11:10:47;;;;;;;4.85;2.78;;;11.30;99.90;;;;;;4956524;28;20046;-77
2023/02/16 11:13:14;;;;;;;4.38;2.28;;;11.30;99.90;;;;;;4958276;29;20048;-78
2023/02/16 11:15:41;;;;;;;6.85;2.65;;;11.20;99.90;;;;;;4958925;28;20352;-79
2023/02/16 11:18:08;;;;;;;8.45;2.85;;;11.20;99.90;;;;;;4957747;28;20081;-76
2023/02/16 11:20:35;;;;;;;5.28;1.92;;;11.20;99.90;;;;;;4957553;29;20043;-79
2023/02/16 11:23:02;;;;;;;4.28;2.00;;;11.30;99.90;;;;;;4957251;28;20043;-77
2023/02/16 11:25:28;;;;;;;2.67;1.90;;;11.30;99.90;;;;;;4956482;28;20039;-78
2023/02/16 11:27:56;;;;;;;3.75;2.00;;;11.30;99.90;;;;;;4958038;29;20343;-78
2023/02/16 11:30:22;;;;;;;2.60;1.80;;;11.50;99.90;;;;;;4957407;28;20047;-79
2023/02/16 11:32:49;;;;;;;4.25;1.90;;;11.50;99.90;;;;;;4958630;28;20047;-79
2023/02/16 11:35:16;;;;;;;3.75;1.50;;;11.60;99.90;;;;;;4957685;29;20432;-76
2023/02/16 11:37:43;;;;;;;4.95;2.03;;;11.50;99.90;;;;;;4956392;28;20054;-78
2023/02/16 11:40:09;;;;;;;3.70;1.70;;;11.50;99.90;;;;;;4958044;28;20054;-82
2023/02/16 11:42:36;;;;;;;6.20;1.80;;;11.60;99.90;;;;;;4958356;28;20047;-81
2023/02/16 11:45:03;;;;;;;5.10;1.90;;;11.60;99.90;;;;;;4961654;28;20031;-79
2023/02/16 11:47:30;;;;;;;3.10;2.15;;;11.70;99.90;;;;;;4977613;28;20057;-80
2023/02/16 11:49:57;;;;;;;6.32;2.67;;;11.70;99.90;;;;;;4977228;28;20047;-79
2023/02/16 11:52:23;;;;;;;3.38;1.88;;;11.80;99.90;;;;;;4975465;28;20135;-79
2023/02/16 11:54:50;;;;;;;4.72;2.30;;;12.00;99.90;;;;;;4960251;28;20061;-80
2023/02/16 11:57:17;;;;;;;3.70;1.90;;;12.00;99.90;;;;;;4975666;28;20047;-77
2023/02/16 11:59:43;;;;;;;3.63;1.90;;;12.30;99.90;;;;;;4976917;28;20050;-77
2023/02/16 12:02:10;;;;;;;2.20;1.60;;;12.20;99.90;;;;;;4976428;28;20051;-77
2023/02/16 12:04:37;;;;;;;3.30;1.90;;;12.10;99.90;;;;;;4976173;28;20496;-77
2023/02/16 12:07:03;;;;;;;3.65;1.70;;;12.20;99.90;;;;;;4977297;28;20125;-77
2023/02/16 12:09:30;;;;;;;3.67;1.80;;;12.30;99.90;;;;;;4976355;28;20038;-78
2023/02/16 12:11:57;;;;;;;3.25;1.55;;;12.10;99.90;;;;;;4975599;28;20049;-78
2023/02/16 12:14:28;;;;;;;4.07;1.70;;;12.10;99.90;;;;;;4977242;28;20445;-78
2023/02/16 12:16:54;;;;;;;2.92;2.00;;;12.00;99.90;;;;;;4974948;28;20047;-76
2023/02/16 12:19:21;;;;;;;2.45;2.03;;;12.00;99.90;;;;;;4976958;28;20446;-78
2023/02/16 12:21:48;;;;;;;3.88;2.10;;;12.00;99.90;;;;;;4976588;28;20043;-78
2023/02/16 12:24:16;;;;;;;2.70;2.33;;;12.00;99.90;;;;;;4976120;28;20043;-77
2023/02/16 12:26:43;;;;;;;3.17;2.40;;;11.90;99.90;;;;;;4976990;28;20342;-79
2023/02/16 12:29:10;;;;;;;3.63;2.33;;;11.90;99.90;;;;;;4977034;28;20117;-76
2023/02/16 12:31:37;;;;;;;4.45;2.92;;;12.00;99.90;;;;;;4975353;28;20047;-76
2023/02/16 12:34:04;;;;;;;4.15;2.80;;;12.20;99.90;;;;;;4966195;28;20435;-78
2023/02/16 12:36:30;;;;;;;3.65;2.38;;;12.20;99.90;;;;;;4976253;28;20046;-79
2023/02/16 12:38:57;;;;;;;4.00;2.70;;;12.30;99.90;;;;;;4970389;28;20046;-79
2023/02/16 12:41:24;;;;;;;4.28;2.25;;;12.40;99.90;;;;;;4956499;28;20121;-77
2023/02/16 12:43:51;;;;;;;2.95;2.10;;;12.60;99.90;;;;;;4959953;28;20362;-79
2023/02/16 12:46:17;;;;;;;3.22;2.10;;;12.60;99.90;;;;;;4975552;28;20074;-79
2023/02/16 12:48:44;;;;;;;3.25;2.40;;;12.60;99.90;;;;;;4972795;28;20450;-77
2023/02/16 12:51:10;;;;;;;3.63;2.53;;;12.40;99.90;;;;;;4955934;28;20043;-78
2023/02/16 12:53:37;;;;;;;4.40;2.78;;;12.40;99.90;;;;;;4958457;28;20061;-79
2023/02/16 12:56:04;;;;;;;3.17;2.10;;;12.60;99.90;;;;;;4975941;28;20051;-78
2023/02/16 12:58:31;;;;;;;2.60;2.20;;;12.60;99.90;;;;;;4973916;28;20453;-77
2023/02/16 13:00:59;;;;;;;4.63;2.35;;;12.70;99.90;;;;;;4975648;28;20050;-78
2023/02/16 13:03:27;;;;;;;2.33;1.80;;;12.80;99.90;;;;;;4965952;28;20109;-78
2023/02/16 13:05:54;;;;;;;2.67;2.08;;;12.90;99.90;;;;;;4988128;28;20045;-80
2023/02/16 13:08:21;;;;;;;2.30;1.67;;;13.00;99.90;;;;;;4994399;28;20039;-77
2023/02/16 13:10:47;;;;;;;1.73;1.60;;;13.00;99.90;;;;;;4985161;28;20049;-76
2023/02/16 13:13:14;;;;;;;2.78;1.83;;;13.10;99.90;;;;;;4994315;28;20042;-79
2023/02/16 13:15:42;;;;;;;2.35;1.75;;;13.10;99.90;;;;;;4961630;28;20059;-76
2023/02/16 13:18:09;;;;;;;2.25;1.88;;;13.00;99.90;;;;;;4953578;29;20083;-76
2023/02/16 13:20:35;;;;;;;2.70;1.67;;;12.90;99.90;;;;;;4954892;28;20055;-77
2023/02/16 13:23:02;;;;;;;1.98;1.67;;;12.80;99.90;;;;;;4961083;28;20481;-75
2023/02/16 13:25:29;;;;;;;2.83;1.85;;;12.70;99.90;;;;;;4975004;28;20046;-77
2023/02/16 13:27:56;;;;;;;2.25;1.80;;;12.70;99.90;;;;;;4960730;28;20051;-76
2023/02/16 13:30:23;;;;;;;4.35;1.85;;;12.70;99.90;;;;;;4953820;29;20110;-78
2023/02/16 13:32:50;;;;;;;1.95;1.77;;;12.70;99.90;;;;;;4955720;28;20122;-78